• Join FlightAware (Why Join?)
  • Login
  • US Flag 
08:00AM EST


 

Airport Tracker/Info


-or-


 

Live Flight TrackerFlight Track Log ✈ C-FMFU ✈ 05-Jul-2013 ✈ CYPG - CYPG

Flight Track Log - Related Links

Times and Time Zones

All times are in EDT time to prevent confusion due to time zone crossing. See the C-FMFU flight status page for this flight to view local times or setup timezone preferences in your user account.

Time Position Orientation Groundspeed Altitude Reporting Facility
EDT Latitude Longitude Course Direction KTS MPH feet Rate Location/Type
11:07AM 49.9167 -98.3500 314° West 160 184 2,100  Level Winnipeg Center
11:08AM 49.9500 -98.3667 342° North 160 184 3,400 1,380 Climbing Winnipeg Center
11:09AM 49.9667 -98.4167 297° West 150 173 4,900 1,260 Climbing Winnipeg Center
11:10AM 50.0000 -98.4833 308° West 150 173 6,000 1,260 Climbing Winnipeg Center
11:11AM 50.0333 -98.5333 316° Northwest 160 184 7,500 960 Climbing Winnipeg Center
11:12AM 49.9028 -98.2747 261° West  Level Estimated
11:12AM 50.0667 -98.5500 342° North 170 196 8,000  Level Winnipeg Center
11:13AM 49.9028 -98.2747 314° West  Level Estimated
11:13AM 50.1000 -98.6333 302° West 200 230 8,000  Level Winnipeg Center
11:14AM 50.0833 -98.7333 255° West 220 253 8,000  Level Winnipeg Center
11:15AM 50.0667 -98.8167 253° West 220 253 8,000  Level Winnipeg Center
11:16AM 50.0500 -98.9167 255° West 230 265 8,000  Level Winnipeg Center
11:17AM 50.0500 -99.0167 270° West 230 265 8,000  Level Winnipeg Center
11:18AM 50.0333 -99.1333 258° West 220 253 8,000  Level Winnipeg Center
11:19AM 50.0000 -99.2000 232° Southwest 200 230 8,000  Level Winnipeg Center
11:20AM 50.0000 -99.2833 270° West 180 207 8,000 -360 Level Winnipeg Center
11:21AM 49.9833 -99.3333 243° Southwest 170 196 7,300 -720 Descending Winnipeg Center
11:22AM 49.9667 -99.4167 253° West 170 196 6,600 -900 Descending Winnipeg Center
11:23AM 49.9667 -99.4833 270° West 170 196 5,600 -1,500 Descending Winnipeg Center
11:24AM 49.9500 -99.5333 243° Southwest 160 184 3,700 -1,200 Descending Winnipeg Center
11:25AM 49.9500 -99.6167 270° West 160 184 3,300 -240 Descending Winnipeg Center
11:26AM 49.9333 -99.7000 253° West 160 184 3,300  Level Winnipeg Center
11:27AM 49.9167 -99.7167 213° Southwest 150 173 3,300  Level Winnipeg Center
11:28AM 49.8667 -99.7500 203° Southwest 150 173 3,300  Level Winnipeg Center
11:29AM 49.8833 -99.8000 297° West 150 173 3,300 -420 Level Winnipeg Center
11:30AM 49.8833 -99.8667 270° West 160 184 2,500 -120 Descending Winnipeg Center
11:32AM 49.9492 -99.9540 357° North  Level FlightAware Approximate
11:33AM 49.8833 -100.0333 357° North 130 150 3,000  Level Winnipeg Center
11:34AM 49.9000 -100.0833 297° West 150 173 4,400 1,320 Climbing Winnipeg Center
11:35AM 49.9333 -100.1167 327° Northwest 140 161 5,700 1,260 Climbing Winnipeg Center
11:36AM 49.9667 -100.0667 44° Northeast 150 173 7,000 1,140 Climbing Winnipeg Center
11:37AM 50.0000 -100.0167 44° Northeast 160 184 8,000 480 Climbing Winnipeg Center
11:38AM 50.0333 -99.9667 44° Northeast 200 230 8,000  Level Winnipeg Center
11:39AM 50.1000 -99.9667 360° North 210 242 8,000  Level Winnipeg Center
11:40AM 50.1500 -99.9667 360° North 220 253 8,000  Level Winnipeg Center
11:41AM 50.2333 -99.9667 360° North 220 253 8,000  Level Winnipeg Center
11:42AM 50.3000 -99.9833 351° North 220 253 8,000  Level Winnipeg Center
11:43AM 50.3667 -99.9833 360° North 220 253 8,000  Level Winnipeg Center
11:44AM 50.4167 -99.9833 360° North 220 253 8,000  Level Winnipeg Center
11:45AM 50.4833 -99.9833 360° North 220 253 8,000  Level Winnipeg Center
11:46AM 50.5500 -100.0000 351° North 220 253 8,000  Level Winnipeg Center
11:47AM 50.6000 -100.0000 360° North 230 265 8,000  Level Winnipeg Center
11:48AM 50.6667 -100.0333 342° North 220 253 8,000 -120 Level Winnipeg Center
11:49AM 50.7333 -100.0333 360° North 220 253 7,800 -540 Descending Winnipeg Center
11:50AM 50.7833 -100.0333 360° North 220 253 7,000 -900 Descending Winnipeg Center
11:51AM 50.8333 -100.1000 320° Northwest 220 253 6,000 -900 Descending Winnipeg Center
11:52AM 50.8833 -100.1167 348° North 220 253 5,200 -840 Descending Winnipeg Center
11:53AM 50.9500 -100.1500 343° North 210 242 4,400 -720 Descending Winnipeg Center
11:54AM 51.0000 -100.1833 337° Northwest 210 242 3,800 -360 Descending Winnipeg Center
11:55AM 51.0500 -100.2167 337° Northwest 200 230 3,700 -60 Descending Winnipeg Center
11:56AM 51.1000 -100.2500 337° Northwest 180 207 3,700  Level Winnipeg Center
11:57AM 51.1333 -100.2667 343° North 170 196 3,700 -60 Level Winnipeg Center
11:59AM 51.0733 -100.1332 126° Southeast  Level FlightAware Approximate
12:04PM 51.0667 -100.0333 126° Southeast 140 161 3,500  Level Winnipeg Center
12:05PM 51.0500 -100.0000 128° Southeast 140 161 4,900 1,500 Climbing Winnipeg Center
12:06PM 50.8383 -99.6174 126° Southeast  Level FlightAware Approximate
12:06PM 51.0333 -99.9167 108° East 150 173 6,500  Level Winnipeg Center
12:07PM 50.8046 -99.5442 126° Southeast  Level FlightAware Approximate
12:07PM 51.0000 -99.8667 137° Southeast 160 184 7,000  Level Winnipeg Center
12:08PM 50.7708 -99.4710 126° Southeast  Level FlightAware Approximate
12:08PM 50.9667 -99.8167 137° Southeast 210 242 7,000  Level Winnipeg Center
12:09PM 50.7369 -99.3980 126° Southeast  Level FlightAware Approximate
12:09PM 50.9167 -99.7333 134° Southeast 220 253 7,000  Level Winnipeg Center
12:10PM 50.8833 -99.6500 122° Southeast 230 265 7,000  Level Winnipeg Center
12:11PM 50.8333 -99.5667 134° Southeast 230 265 7,000  Level Winnipeg Center
12:12PM 50.8000 -99.4833 122° Southeast 230 265 7,000  Level Winnipeg Center
12:13PM 50.7500 -99.4000 133° Southeast 230 265 7,000  Level Winnipeg Center
12:14PM 50.7333 -99.3167 108° East 230 265 7,000  Level Winnipeg Center
12:15PM 50.6833 -99.2333 133° Southeast 230 265 7,000  Level Winnipeg Center
12:16PM 50.6333 -99.1500 133° Southeast 230 265 7,000  Level Winnipeg Center
12:17PM 50.6000 -99.0667 122° Southeast 230 265 7,000  Level Winnipeg Center
12:18PM 50.5500 -99.0000 140° Southeast 230 265 7,000  Level Winnipeg Center
12:19PM 50.5167 -98.9167 122° Southeast 230 265 7,000  Level Winnipeg Center
12:20PM 50.4667 -98.8333 133° Southeast 230 265 7,000  Level Winnipeg Center
12:21PM 50.4333 -98.7833 136° Southeast 230 265 7,000  Level Winnipeg Center
12:22PM 50.3833 -98.7000 133° Southeast 230 265 7,000  Level Winnipeg Center
12:23PM 50.3167 -98.6500 154° Southeast 240 276 7,000  Level Winnipeg Center
12:24PM 50.2667 -98.6167 157° South 240 276 7,000 -60 Level Winnipeg Center
12:25PM 50.2167 -98.5667 147° Southeast 230 265 6,900 -420 Descending Winnipeg Center
12:26PM 50.1500 -98.5000 147° Southeast 230 265 6,200 -780 Descending Winnipeg Center
12:27PM 50.1000 -98.4500 147° Southeast 230 265 5,400 -660 Descending Winnipeg Center
12:28PM 50.0333 -98.4000 154° Southeast 230 265 4,900 -300 Descending Winnipeg Center
12:29PM 49.9833 -98.3500 147° Southeast 230 265 4,900  Level Winnipeg Center
12:30PM 49.9333 -98.2833 139° Southeast 220 253 4,900  Level Winnipeg Center
12:31PM 49.9000 -98.2167 128° Southeast 220 253 4,900  Level Winnipeg Center
12:32PM 49.8667 -98.1333 122° Southeast 220 253 4,900  Level Winnipeg Center
12:33PM 49.8333 -98.0500 122° Southeast 220 253 4,900  Level Winnipeg Center
12:34PM 49.8000 -97.9833 128° Southeast 210 242 4,900 -300 Level Winnipeg Center
12:35PM 49.7833 -97.9167 111° Southeast 200 230 4,400 -720 Descending Winnipeg Center
12:36PM 49.7167 -97.9500 198° South 200 230 3,500 -780 Descending Winnipeg Center
12:37PM 49.7333 -98.0333 287° West 170 196 2,900 -300 Descending Winnipeg Center
12:38PM 49.7500 -98.0833 297° West 150 173 3,000 60 Climbing Winnipeg Center